Time;durP1;ratioP1;P1;durP2;ratioP2;P2;SDS_P1;SDS_P2;PMS_P1;PMS_P2;Temp;Humidity;BMP_temperature;BMP_pressure;BME280_temperature;BME280_humidity;BME280_pressure;Samples;Min_cycle;Max_cycle;Signal;HPM_P1;HPM_P2
2023/02/22 00:01:27;;;;;;;6.55;4.07;;;;;;;;;;5056449;28;20060;-59
2023/02/22 00:03:53;;;;;;;7.65;4.53;;;;;;;;;;5057066;28;20095;-59
2023/02/22 00:06:20;;;;;;;6.70;4.32;;;;;;;;;;5056642;28;20059;-59
2023/02/22 00:08:48;;;;;;;6.47;4.15;;;;;;;;;;5056389;28;20025;-59
2023/02/22 00:11:14;;;;;;;7.13;4.20;;;;;;;;;;5056813;28;20036;-59
2023/02/22 00:13:44;;;;;;;6.07;5.10;;;;;;;;;;5055881;28;20178;-59
2023/02/22 00:16:13;;;;;;;6.20;4.45;;;;;;;;;;5056456;28;20455;-59
2023/02/22 00:18:39;;;;;;;13.07;4.95;;;;;;;;;;5056118;28;20033;-59
2023/02/22 00:21:09;;;;;;;9.60;4.57;;;;;;;;;;5056422;28;20112;-59
2023/02/22 00:23:38;;;;;;;4.75;3.55;;;;;;;;;;5056734;28;20037;-59
2023/02/22 00:26:05;;;;;;;6.70;4.10;;;;;;;;;;5056648;28;20021;-59
2023/02/22 00:28:31;;;;;;;6.75;4.15;;;;;;;;;;5056054;28;20025;-59
2023/02/22 00:30:58;;;;;;;5.03;3.53;;;;;;;;;;5056028;28;20418;-59
2023/02/22 00:33:24;;;;;;;5.85;4.18;;;;;;;;;;5054846;28;20049;-59
2023/02/22 00:35:50;;;;;;;7.63;4.70;;;;;;;;;;5055890;28;22292;-59
2023/02/22 00:38:17;;;;;;;8.95;4.50;;;;;;;;;;5055857;28;20042;-59
2023/02/22 00:40:44;;;;;;;5.43;3.63;;;;;;;;;;5055836;28;20447;-59
2023/02/22 00:43:10;;;;;;;7.82;3.60;;;;;;;;;;5055989;28;20033;-59
2023/02/22 00:45:37;;;;;;;10.50;4.97;;;;;;;;;;5055772;28;20036;-59
2023/02/22 00:48:04;;;;;;;5.80;4.03;;;;;;;;;;5055648;28;20029;-59
2023/02/22 00:50:31;;;;;;;5.28;3.72;;;;;;;;;;5055808;28;20452;-59
2023/02/22 00:52:58;;;;;;;5.30;3.70;;;;;;;;;;5054254;28;20074;-59
2023/02/22 00:55:25;;;;;;;7.18;4.03;;;;;;;;;;5055992;28;20036;-59
2023/02/22 00:57:52;;;;;;;6.20;3.00;;;;;;;;;;5055402;28;20159;-59
2023/02/22 01:00:24;;;;;;;9.57;4.65;;;;;;;;;;5055708;28;20479;-59
2023/02/22 01:02:50;;;;;;;5.70;3.90;;;;;;;;;;5055682;28;20029;-59
2023/02/22 01:05:17;;;;;;;7.07;3.58;;;;;;;;;;5055932;28;20036;-59
2023/02/22 01:07:43;;;;;;;7.00;2.92;;;;;;;;;;5054969;28;20470;-59
2023/02/22 01:10:09;;;;;;;8.18;4.22;;;;;;;;;;5054992;28;20031;-59
2023/02/22 01:12:35;;;;;;;6.43;4.60;;;;;;;;;;5055145;28;20067;-59
2023/02/22 01:15:03;;;;;;;7.75;3.67;;;;;;;;;;5055044;28;20475;-59
2023/02/22 01:17:29;;;;;;;7.72;4.60;;;;;;;;;;5055032;28;20055;-59
2023/02/22 01:19:55;;;;;;;9.40;4.57;;;;;;;;;;5055041;28;20029;-59
2023/02/22 01:22:21;;;;;;;9.18;4.20;;;;;;;;;;5055405;28;20095;-59
2023/02/22 01:24:48;;;;;;;6.30;3.95;;;;;;;;;;5055629;28;20348;-59
2023/02/22 01:27:14;;;;;;;7.55;4.75;;;;;;;;;;5055513;28;20344;-59
2023/02/22 01:29:40;;;;;;;5.90;4.50;;;;;;;;;;5053908;28;20036;-59
2023/02/22 01:32:06;;;;;;;5.40;3.72;;;;;;;;;;5055607;28;20021;-59
2023/02/22 01:34:32;;;;;;;6.68;4.55;;;;;;;;;;5054795;28;20029;-59
2023/02/22 01:37:00;;;;;;;7.32;4.97;;;;;;;;;;5054388;28;20036;-59
2023/02/22 01:39:26;;;;;;;6.97;4.28;;;;;;;;;;5054623;28;20386;-59
2023/02/22 01:41:55;;;;;;;6.63;4.00;;;;;;;;;;5054667;28;20020;-59
2023/02/22 01:44:27;;;;;;;8.70;5.95;;;;;;;;;;5054035;28;20491;-59
2023/02/22 01:46:53;;;;;;;5.97;4.22;;;;;;;;;;5055060;28;20029;-59
2023/02/22 01:49:19;;;;;;;4.68;3.97;;;;;;;;;;5054423;28;20086;-59
2023/02/22 01:51:51;;;;;;;7.03;5.43;;;;;;;;;;5054006;28;20031;-59
2023/02/22 01:54:24;;;;;;;9.82;4.40;;;;;;;;;;5054285;28;20036;-58
2023/02/22 01:56:53;;;;;;;7.70;3.47;;;;;;;;;;5055022;28;20028;-59
2023/02/22 01:59:20;;;;;;;7.40;4.25;;;;;;;;;;5054546;28;20033;-59
2023/02/22 02:01:46;;;;;;;5.07;3.92;;;;;;;;;;5054996;28;20397;-59
2023/02/22 02:04:15;;;;;;;6.63;4.25;;;;;;;;;;5055060;28;20116;-59
2023/02/22 02:06:42;;;;;;;6.38;3.80;;;;;;;;;;5054586;28;20037;-59
2023/02/22 02:09:14;;;;;;;5.43;3.80;;;;;;;;;;5053921;28;20029;-59
2023/02/22 02:11:41;;;;;;;4.97;3.67;;;;;;;;;;5053870;28;20378;-59
2023/02/22 02:14:08;;;;;;;8.02;4.22;;;;;;;;;;5053849;28;20474;-59
2023/02/22 02:16:45;;;;;;;5.68;3.20;;;;;;;;;;5053951;28;20395;-59
2023/02/22 02:19:24;;;;;;;8.55;4.18;;;;;;;;;;5054234;28;20029;-59
2023/02/22 02:21:53;;;;;;;5.55;3.92;;;;;;;;;;5053956;28;20025;-59
2023/02/22 02:24:28;;;;;;;6.80;4.25;;;;;;;;;;5054368;28;20029;-59
2023/02/22 02:26:54;;;;;;;7.43;4.40;;;;;;;;;;5054173;28;20029;-59
2023/02/22 02:29:38;;;;;;;9.63;5.47;;;;;;;;;;5053754;28;20029;-59
2023/02/22 02:32:22;;;;;;;7.72;3.95;;;;;;;;;;5054028;28;20413;-58
2023/02/22 02:34:54;;;;;;;6.95;4.88;;;;;;;;;;5054040;28;20481;-58
2023/02/22 02:37:26;;;;;;;7.15;3.75;;;;;;;;;;5053869;28;20036;-59
2023/02/22 02:40:10;;;;;;;7.00;3.85;;;;;;;;;;5053922;28;20494;-59
2023/02/22 02:42:40;;;;;;;4.65;3.13;;;;;;;;;;5053974;28;20029;-59
2023/02/22 02:45:18;;;;;;;8.25;4.50;;;;;;;;;;5054145;28;20352;-59
2023/02/22 02:47:46;;;;;;;5.65;4.40;;;;;;;;;;5053540;28;20029;-59
2023/02/22 02:50:30;;;;;;;5.65;4.28;;;;;;;;;;5053779;28;20070;-59
2023/02/22 02:52:59;;;;;;;5.22;4.20;;;;;;;;;;5054058;28;20025;-59
2023/02/22 02:55:26;;;;;;;6.63;3.88;;;;;;;;;;5054319;28;20029;-59
2023/02/22 02:57:52;;;;;;;8.25;3.63;;;;;;;;;;5057634;28;20033;-59
2023/02/22 03:00:21;;;;;;;5.15;3.35;;;;;;;;;;5058206;28;20478;-59
2023/02/22 03:02:47;;;;;;;8.20;4.80;;;;;;;;;;5058251;28;20032;-59
2023/02/22 03:05:32;;;;;;;8.25;3.65;;;;;;;;;;5058212;28;20577;-59
2023/02/22 03:08:09;;;;;;;5.10;3.65;;;;;;;;;;5058044;28;20032;-59
2023/02/22 03:10:54;;;;;;;4.97;3.63;;;;;;;;;;5058330;28;20468;-59
2023/02/22 03:13:35;;;;;;;7.93;5.78;;;;;;;;;;5057886;28;20052;-58
2023/02/22 03:16:15;;;;;;;5.38;4.03;;;;;;;;;;5057239;28;20040;-59
2023/02/22 03:18:41;;;;;;;5.70;3.58;;;;;;;;;;5057579;28;20048;-59
2023/02/22 03:21:10;;;;;;;6.82;4.75;;;;;;;;;;5057237;28;20040;-59
2023/02/22 03:24:06;;;;;;;7.53;4.45;;;;;;;;;;5057271;28;20036;-59
2023/02/22 03:26:41;;;;;;;7.30;4.10;;;;;;;;;;5051894;28;20040;-59
2023/02/22 03:29:09;;;;;;;5.68;3.95;;;;;;;;;;5058020;28;20082;-59
2023/02/22 03:31:37;;;;;;;5.85;4.35;;;;;;;;;;5057129;28;20033;-59
2023/02/22 03:34:23;;;;;;;5.35;3.85;;;;;;;;;;5057672;28;20029;-59
2023/02/22 03:36:54;;;;;;;6.05;3.88;;;;;;;;;;5056642;28;20029;-59
2023/02/22 03:39:27;;;;;;;6.15;4.28;;;;;;;;;;5057018;28;20037;-59
2023/02/22 03:41:53;;;;;;;8.65;4.80;;;;;;;;;;5057483;28;20379;-59
2023/02/22 03:44:23;;;;;;;9.70;4.78;;;;;;;;;;5056830;28;20481;-59
2023/02/22 03:46:50;;;;;;;5.43;4.43;;;;;;;;;;5057383;28;20033;-59
2023/02/22 03:49:42;;;;;;;6.50;4.47;;;;;;;;;;5057341;28;20078;-59
2023/02/22 03:52:09;;;;;;;7.45;4.45;;;;;;;;;;5055510;28;20041;-59
2023/02/22 03:54:35;;;;;;;5.88;4.55;;;;;;;;;;5057253;28;20108;-59
2023/02/22 03:57:06;;;;;;;6.10;4.55;;;;;;;;;;5057356;28;20120;-59
2023/02/22 03:59:32;;;;;;;8.88;4.35;;;;;;;;;;5057000;28;20033;-59
2023/02/22 04:01:58;;;;;;;5.15;4.05;;;;;;;;;;5056636;28;20056;-59
2023/02/22 04:04:24;;;;;;;8.07;4.63;;;;;;;;;;5056560;28;20075;-59
2023/02/22 04:06:50;;;;;;;6.80;4.80;;;;;;;;;;5056392;28;20459;-59
2023/02/22 04:09:17;;;;;;;6.20;5.05;;;;;;;;;;5056736;28;20033;-59
2023/02/22 04:11:43;;;;;;;6.05;4.22;;;;;;;;;;5056408;28;20029;-59
2023/02/22 04:14:09;;;;;;;6.00;4.28;;;;;;;;;;5056505;28;20057;-59
2023/02/22 04:16:35;;;;;;;5.70;4.63;;;;;;;;;;5056229;28;20037;-59
2023/02/22 04:19:01;;;;;;;7.05;4.68;;;;;;;;;;5056195;28;20025;-59
2023/02/22 04:21:27;;;;;;;7.32;4.80;;;;;;;;;;5056203;28;20067;-59
2023/02/22 04:23:53;;;;;;;6.82;4.05;;;;;;;;;;5056419;28;20029;-59
2023/02/22 04:26:19;;;;;;;4.88;3.63;;;;;;;;;;5056194;28;20032;-59
2023/02/22 04:28:45;;;;;;;8.18;5.28;;;;;;;;;;5055842;28;20178;-59
2023/02/22 04:31:11;;;;;;;5.93;4.72;;;;;;;;;;5056044;28;20091;-59
2023/02/22 04:33:36;;;;;;;5.00;3.72;;;;;;;;;;5056875;28;20028;-59
2023/02/22 04:36:03;;;;;;;4.40;3.45;;;;;;;;;;5056568;28;20056;-59
2023/02/22 04:38:29;;;;;;;7.97;5.10;;;;;;;;;;5055998;28;20025;-59
2023/02/22 04:40:55;;;;;;;4.60;3.97;;;;;;;;;;5056404;28;20039;-59
2023/02/22 04:43:21;;;;;;;6.25;4.60;;;;;;;;;;5055895;28;20029;-59
2023/02/22 04:45:47;;;;;;;7.30;5.03;;;;;;;;;;5056219;28;20025;-59
2023/02/22 04:48:13;;;;;;;6.28;4.50;;;;;;;;;;5056369;28;20031;-59
2023/02/22 04:50:39;;;;;;;5.75;4.18;;;;;;;;;;5055787;28;20108;-59
2023/02/22 04:53:05;;;;;;;4.57;4.07;;;;;;;;;;5056031;28;20447;-59
2023/02/22 04:55:32;;;;;;;4.72;3.88;;;;;;;;;;5055940;28;20027;-59
2023/02/22 04:57:58;;;;;;;9.73;4.25;;;;;;;;;;5055557;28;20031;-59
2023/02/22 05:00:24;;;;;;;5.22;4.25;;;;;;;;;;5056125;28;20371;-59
2023/02/22 05:02:50;;;;;;;6.80;4.47;;;;;;;;;;5055569;28;20025;-59
2023/02/22 05:05:17;;;;;;;4.47;3.38;;;;;;;;;;5056318;28;20048;-59
2023/02/22 05:07:43;;;;;;;6.05;4.18;;;;;;;;;;5055384;28;20111;-59
2023/02/22 05:10:10;;;;;;;5.55;4.20;;;;;;;;;;5055379;28;20021;-59
2023/02/22 05:12:36;;;;;;;7.88;5.07;;;;;;;;;;5055014;28;20383;-59
2023/02/22 05:15:03;;;;;;;7.80;4.57;;;;;;;;;;5055132;28;20041;-58
2023/02/22 05:17:29;;;;;;;5.43;4.28;;;;;;;;;;5055674;28;20032;-59
2023/02/22 05:19:55;;;;;;;7.45;4.65;;;;;;;;;;5054641;28;20383;-59
2023/02/22 05:22:21;;;;;;;6.32;4.93;;;;;;;;;;5055412;28;20024;-59
2023/02/22 05:24:47;;;;;;;6.72;5.00;;;;;;;;;;5055074;28;20352;-59
2023/02/22 05:27:13;;;;;;;6.32;4.50;;;;;;;;;;5055287;28;20071;-59
2023/02/22 05:29:39;;;;;;;6.60;4.45;;;;;;;;;;5054884;28;20029;-58
2023/02/22 05:32:05;;;;;;;5.18;3.90;;;;;;;;;;5055433;28;20112;-59
2023/02/22 05:34:32;;;;;;;6.78;3.78;;;;;;;;;;5054767;28;20032;-59
2023/02/22 05:36:58;;;;;;;9.38;4.78;;;;;;;;;;5055004;28;20087;-58
2023/02/22 05:39:24;;;;;;;5.70;4.07;;;;;;;;;;5055093;28;20359;-58
2023/02/22 05:41:50;;;;;;;6.72;3.55;;;;;;;;;;5054989;28;20029;-59
2023/02/22 05:44:16;;;;;;;4.77;3.63;;;;;;;;;;5055104;28;20033;-58
2023/02/22 05:46:42;;;;;;;4.80;4.00;;;;;;;;;;5055222;28;20028;-59
2023/02/22 05:49:07;;;;;;;6.63;4.38;;;;;;;;;;5054589;28;20024;-59
2023/02/22 05:51:33;;;;;;;10.52;4.13;;;;;;;;;;5055030;28;20021;-58
2023/02/22 05:53:59;;;;;;;7.22;5.40;;;;;;;;;;5055029;28;20108;-59
2023/02/22 05:56:27;;;;;;;10.32;5.30;;;;;;;;;;5054867;28;20469;-58
2023/02/22 05:58:53;;;;;;;6.05;4.38;;;;;;;;;;5054341;28;20033;-59
2023/02/22 06:01:19;;;;;;;7.72;4.93;;;;;;;;;;5054589;28;20025;-59
2023/02/22 06:03:46;;;;;;;5.75;4.03;;;;;;;;;;5054775;28;20049;-56
2023/02/22 06:06:12;;;;;;;9.02;5.20;;;;;;;;;;5054268;28;20035;-56
2023/02/22 06:08:38;;;;;;;8.98;4.60;;;;;;;;;;5054195;28;20108;-56
2023/02/22 06:11:04;;;;;;;8.90;4.47;;;;;;;;;;5055005;28;20025;-56
2023/02/22 06:13:30;;;;;;;11.85;4.78;;;;;;;;;;5054238;28;20378;-55
2023/02/22 06:15:56;;;;;;;5.18;4.05;;;;;;;;;;5054357;28;20021;-56
2023/02/22 06:18:25;;;;;;;9.70;5.90;;;;;;;;;;5054054;28;20079;-56
2023/02/22 06:20:51;;;;;;;6.82;4.55;;;;;;;;;;5053919;28;20033;-54
2023/02/22 06:23:17;;;;;;;8.80;5.65;;;;;;;;;;5053958;28;20036;-55
2023/02/22 06:25:43;;;;;;;8.70;5.43;;;;;;;;;;5054286;28;20107;-55
2023/02/22 06:28:09;;;;;;;7.38;6.32;;;;;;;;;;5054153;28;20033;-57
2023/02/22 06:30:35;;;;;;;7.35;5.60;;;;;;;;;;5053580;28;20029;-55
2023/02/22 06:33:01;;;;;;;7.90;5.50;;;;;;;;;;5053525;28;20203;-56
2023/02/22 06:35:27;;;;;;;10.55;5.38;;;;;;;;;;5054257;28;20025;-57
2023/02/22 06:37:53;;;;;;;6.70;4.57;;;;;;;;;;5053773;28;20044;-54
2023/02/22 06:40:19;;;;;;;6.90;5.07;;;;;;;;;;5053705;28;20107;-56
2023/02/22 06:42:47;;;;;;;6.40;4.28;;;;;;;;;;5053793;28;20025;-53
2023/02/22 06:45:13;;;;;;;6.03;4.68;;;;;;;;;;5053707;28;20528;-58
2023/02/22 06:47:40;;;;;;;6.30;5.32;;;;;;;;;;5053686;28;20033;-57
2023/02/22 06:50:06;;;;;;;7.55;5.57;;;;;;;;;;5053637;28;20032;-56
2023/02/22 06:52:32;;;;;;;6.97;5.43;;;;;;;;;;5053316;28;20538;-57
2023/02/22 06:54:58;;;;;;;8.75;5.22;;;;;;;;;;5053618;28;20060;-57
2023/02/22 06:57:24;;;;;;;4.93;4.30;;;;;;;;;;5053467;28;20118;-55
2023/02/22 06:59:50;;;;;;;7.20;6.15;;;;;;;;;;5053959;28;20033;-57
2023/02/22 07:02:16;;;;;;;11.55;5.70;;;;;;;;;;5053220;28;20463;-57
2023/02/22 07:04:42;;;;;;;7.22;4.95;;;;;;;;;;5053743;28;20218;-56
2023/02/22 07:07:08;;;;;;;6.32;5.03;;;;;;;;;;5053404;28;20100;-56
2023/02/22 07:09:34;;;;;;;7.93;5.65;;;;;;;;;;5053398;28;20036;-57
2023/02/22 07:12:00;;;;;;;8.43;5.00;;;;;;;;;;5053122;28;20490;-57
2023/02/22 07:14:26;;;;;;;8.32;5.70;;;;;;;;;;5053000;28;20095;-57
2023/02/22 07:16:52;;;;;;;8.93;5.20;;;;;;;;;;5052893;28;20511;-55
2023/02/22 07:19:18;;;;;;;6.88;6.00;;;;;;;;;;5053533;28;20067;-56
2023/02/22 07:21:46;;;;;;;5.90;5.00;;;;;;;;;;5053414;28;20079;-56
2023/02/22 07:24:12;;;;;;;12.38;6.35;;;;;;;;;;5053216;28;20052;-57
2023/02/22 07:26:39;;;;;;;7.35;5.00;;;;;;;;;;5053759;28;20028;-57
2023/02/22 07:29:06;;;;;;;8.05;5.45;;;;;;;;;;5053061;28;20025;-55
2023/02/22 07:31:35;;;;;;;5.07;4.20;;;;;;;;;;5053220;28;20021;-54
2023/02/22 07:34:01;;;;;;;8.63;5.00;;;;;;;;;;5051789;28;20021;-54
2023/02/22 07:36:27;;;;;;;8.65;5.45;;;;;;;;;;5053270;28;20115;-56
2023/02/22 07:38:53;;;;;;;5.75;4.78;;;;;;;;;;5053002;28;20032;-57
2023/02/22 07:41:21;;;;;;;6.45;4.88;;;;;;;;;;5053136;28;20048;-57
2023/02/22 07:43:47;;;;;;;5.65;4.28;;;;;;;;;;5057575;28;20033;-57
2023/02/22 07:46:13;;;;;;;6.97;5.15;;;;;;;;;;5057004;28;20100;-56
2023/02/22 07:48:39;;;;;;;7.30;5.25;;;;;;;;;;5056757;28;20387;-57
2023/02/22 07:51:06;;;;;;;7.47;5.00;;;;;;;;;;5056951;28;20036;-56
2023/02/22 07:53:32;;;;;;;9.10;5.75;;;;;;;;;;5056730;28;20051;-57
2023/02/22 07:55:59;;;;;;;8.88;5.25;;;;;;;;;;5056655;28;20028;-53
2023/02/22 07:58:26;;;;;;;7.53;4.82;;;;;;;;;;5056737;28;20561;-57
2023/02/22 08:00:52;;;;;;;9.23;5.53;;;;;;;;;;5056698;28;20075;-57
2023/02/22 08:03:19;;;;;;;6.45;5.20;;;;;;;;;;5056318;28;20059;-58
2023/02/22 08:05:46;;;;;;;9.20;6.10;;;;;;;;;;5057093;28;20029;-57
2023/02/22 08:08:14;;;;;;;4.97;4.00;;;;;;;;;;5057013;28;20039;-57
2023/02/22 08:10:40;;;;;;;10.48;5.78;;;;;;;;;;5056486;28;20032;-58
2023/02/22 08:13:06;;;;;;;10.35;5.55;;;;;;;;;;5056092;28;20041;-57
2023/02/22 08:15:34;;;;;;;10.57;5.22;;;;;;;;;;5056558;28;20066;-57
2023/02/22 08:18:00;;;;;;;8.30;5.63;;;;;;;;;;5056142;28;20025;-58
2023/02/22 08:20:27;;;;;;;7.10;4.85;;;;;;;;;;5055733;28;20029;-56
2023/02/22 08:22:53;;;;;;;9.18;5.75;;;;;;;;;;5056385;28;20427;-57
2023/02/22 08:25:20;;;;;;;10.27;5.85;;;;;;;;;;5056852;28;20151;-56
2023/02/22 08:27:46;;;;;;;6.78;4.57;;;;;;;;;;5056443;28;20024;-55
2023/02/22 08:30:17;;;;;;;4.95;3.75;;;;;;;;;;5055888;28;20025;-56
2023/02/22 08:32:45;;;;;;;7.25;4.20;;;;;;;;;;5056123;28;20032;-58
2023/02/22 08:35:12;;;;;;;5.25;3.38;;;;;;;;;;5056329;28;20027;-58
2023/02/22 08:37:41;;;;;;;6.00;4.45;;;;;;;;;;5055858;28;20037;-57
2023/02/22 08:40:07;;;;;;;8.15;5.22;;;;;;;;;;5056275;28;20033;-58
2023/02/22 08:42:33;;;;;;;8.75;5.82;;;;;;;;;;5055811;28;20033;-57
2023/02/22 08:44:59;;;;;;;7.50;5.50;;;;;;;;;;5056118;28;20029;-57
2023/02/22 08:47:25;;;;;;;7.38;5.55;;;;;;;;;;5055696;28;20068;-57
2023/02/22 08:49:51;;;;;;;7.22;4.47;;;;;;;;;;5055496;28;20394;-57
2023/02/22 08:52:17;;;;;;;7.25;5.00;;;;;;;;;;5055957;28;20025;-56
2023/02/22 08:54:45;;;;;;;7.82;4.68;;;;;;;;;;5055094;28;20446;-58
2023/02/22 08:57:11;;;;;;;7.15;5.18;;;;;;;;;;5055431;28;20029;-57
2023/02/22 08:59:37;;;;;;;6.82;5.28;;;;;;;;;;5055482;28;20029;-57
2023/02/22 09:02:04;;;;;;;9.80;6.47;;;;;;;;;;5055502;28;20032;-57
2023/02/22 09:04:29;;;;;;;8.35;5.32;;;;;;;;;;5055383;28;20029;-57
2023/02/22 09:06:56;;;;;;;10.82;4.65;;;;;;;;;;5055069;28;20111;-56
2023/02/22 09:09:22;;;;;;;11.25;5.68;;;;;;;;;;5055323;28;20071;-57
2023/02/22 09:11:48;;;;;;;6.80;5.40;;;;;;;;;;5055282;28;20029;-57
2023/02/22 09:14:15;;;;;;;8.95;5.40;;;;;;;;;;5054871;28;20457;-58
2023/02/22 09:16:41;;;;;;;7.05;5.15;;;;;;;;;;5055418;28;20390;-57
2023/02/22 09:19:07;;;;;;;7.18;5.30;;;;;;;;;;5055546;28;20029;-57
2023/02/22 09:21:33;;;;;;;7.25;5.82;;;;;;;;;;5055665;28;20546;-58
2023/02/22 09:24:07;;;;;;;6.47;4.57;;;;;;;;;;5055039;28;20033;-58
2023/02/22 09:26:32;;;;;;;8.38;5.78;;;;;;;;;;5055056;28;20391;-58
2023/02/22 09:28:58;;;;;;;7.40;4.90;;;;;;;;;;5055534;28;20036;-58
2023/02/22 09:31:24;;;;;;;8.70;4.97;;;;;;;;;;5055481;28;20545;-57
2023/02/22 09:33:50;;;;;;;8.90;4.70;;;;;;;;;;5054681;28;20029;-58
2023/02/22 09:36:16;;;;;;;7.78;5.35;;;;;;;;;;5055064;28;20056;-58
2023/02/22 09:38:42;;;;;;;8.07;5.97;;;;;;;;;;5055087;28;20037;-58
2023/02/22 09:41:19;;;;;;;8.48;5.22;;;;;;;;;;5054751;28;20036;-58
2023/02/22 09:43:48;;;;;;;7.03;5.40;;;;;;;;;;5055138;28;20028;-58
2023/02/22 09:46:30;;;;;;;6.20;4.80;;;;;;;;;;5054662;28;20025;-58
2023/02/22 09:49:01;;;;;;;11.20;6.93;;;;;;;;;;5054261;28;20064;-58
2023/02/22 09:51:34;;;;;;;11.55;6.35;;;;;;;;;;5054626;28;20029;-59
2023/02/22 09:54:01;;;;;;;6.90;4.80;;;;;;;;;;5054804;28;20082;-57
2023/02/22 09:56:29;;;;;;;8.57;5.90;;;;;;;;;;5054537;28;20340;-56
2023/02/22 09:58:57;;;;;;;7.30;5.05;;;;;;;;;;5055182;28;20040;-57
2023/02/22 10:01:43;;;;;;;8.52;5.97;;;;;;;;;;5054399;28;20130;-57
2023/02/22 10:04:19;;;;;;;8.40;5.95;;;;;;;;;;5054811;28;20029;-58
2023/02/22 10:07:04;;;;;;;15.23;7.97;;;;;;;;;;5054628;28;20039;-58
2023/02/22 10:09:33;;;;;;;12.93;7.55;;;;;;;;;;5054117;28;20021;-58
2023/02/22 10:12:07;;;;;;;8.98;6.40;;;;;;;;;;5054686;28;20033;-58
2023/02/22 10:14:42;;;;;;;9.32;5.10;;;;;;;;;;5054949;28;20521;-58
2023/02/22 10:17:21;;;;;;;7.40;5.07;;;;;;;;;;5053977;28;20029;-58
2023/02/22 10:20:05;;;;;;;14.85;4.95;;;;;;;;;;5055071;28;20091;-58
2023/02/22 10:22:46;;;;;;;6.35;4.03;;;;;;;;;;5054370;28;20051;-58
2023/02/22 10:25:18;;;;;;;6.80;3.58;;;;;;;;;;5054187;28;20033;-58
2023/02/22 10:27:47;;;;;;;6.38;3.58;;;;;;;;;;5054075;28;20044;-58
2023/02/22 10:30:19;;;;;;;5.20;3.78;;;;;;;;;;5054706;28;20347;-57
2023/02/22 10:32:47;;;;;;;5.40;3.20;;;;;;;;;;5053638;28;20055;-55
2023/02/22 10:35:24;;;;;;;5.93;3.80;;;;;;;;;;5054333;28;20025;-57
2023/02/22 10:37:52;;;;;;;7.13;4.43;;;;;;;;;;5054173;28;20071;-57
2023/02/22 10:40:21;;;;;;;7.43;5.43;;;;;;;;;;5054248;28;20033;-57
2023/02/22 10:42:48;;;;;;;6.00;4.40;;;;;;;;;;5054173;28;20489;-57
2023/02/22 10:45:26;;;;;;;4.90;4.07;;;;;;;;;;5053765;28;20032;-57
2023/02/22 10:47:54;;;;;;;9.82;5.40;;;;;;;;;;5053716;28;20147;-57
2023/02/22 10:50:21;;;;;;;7.25;4.65;;;;;;;;;;5053660;28;20021;-58
2023/02/22 10:52:47;;;;;;;7.72;4.65;;;;;;;;;;5053697;28;20436;-58
2023/02/22 10:55:14;;;;;;;5.80;4.47;;;;;;;;;;5054073;28;20021;-58
2023/02/22 10:57:41;;;;;;;7.50;4.85;;;;;;;;;;5053322;28;20017;-58
2023/02/22 11:00:28;;;;;;;9.90;5.05;;;;;;;;;;5053684;28;20036;-59
2023/02/22 11:02:56;;;;;;;9.00;4.38;;;;;;;;;;5054316;28;20055;-58
2023/02/22 11:05:40;;;;;;;5.97;3.80;;;;;;;;;;5053847;28;20166;-57
2023/02/22 11:08:14;;;;;;;6.75;4.60;;;;;;;;;;5053533;28;20025;-58
2023/02/22 11:10:42;;;;;;;9.68;5.05;;;;;;;;;;5053314;28;20382;-57
2023/02/22 11:13:26;;;;;;;7.78;5.68;;;;;;;;;;5053409;28;20053;-58
2023/02/22 11:15:59;;;;;;;6.80;5.45;;;;;;;;;;5054241;28;20021;-56
2023/02/22 11:18:26;;;;;;;7.65;5.35;;;;;;;;;;5057903;28;20025;-58
2023/02/22 11:21:10;;;;;;;6.68;4.50;;;;;;;;;;5057606;28;20029;-58
2023/02/22 11:23:37;;;;;;;8.18;5.00;;;;;;;;;;5057367;28;20025;-57
2023/02/22 11:26:06;;;;;;;7.50;4.65;;;;;;;;;;5058266;28;20071;-57
2023/02/22 11:28:32;;;;;;;7.03;5.43;;;;;;;;;;5057227;28;20632;-58
2023/02/22 11:31:08;;;;;;;7.72;5.43;;;;;;;;;;5057643;28;20021;-57
2023/02/22 11:33:34;;;;;;;9.35;5.45;;;;;;;;;;5058177;28;20455;-58
2023/02/22 11:36:03;;;;;;;12.07;7.00;;;;;;;;;;5056743;28;20049;-58
2023/02/22 11:38:33;;;;;;;7.95;6.35;;;;;;;;;;5057056;28;20155;-57
2023/02/22 11:41:14;;;;;;;9.80;6.10;;;;;;;;;;5057056;28;20087;-55
2023/02/22 11:43:41;;;;;;;9.25;6.20;;;;;;;;;;5057623;28;20359;-58
2023/02/22 11:46:11;;;;;;;11.85;6.22;;;;;;;;;;5057302;28;20028;-58
2023/02/22 11:48:39;;;;;;;7.85;6.13;;;;;;;;;;5057507;28;20090;-58
2023/02/22 11:51:17;;;;;;;9.65;5.97;;;;;;;;;;5056807;28;20071;-58
2023/02/22 11:53:57;;;;;;;7.43;5.55;;;;;;;;;;5056800;28;20032;-57
2023/02/22 11:56:33;;;;;;;10.73;6.45;;;;;;;;;;5056972;28;20024;-57
2023/02/22 11:59:02;;;;;;;9.05;6.15;;;;;;;;;;5057009;28;20533;-58
2023/02/22 12:01:38;;;;;;;10.95;6.25;;;;;;;;;;5056395;28;20028;-56
2023/02/22 12:04:14;;;;;;;7.43;5.60;;;;;;;;;;5056901;28;20025;-57
2023/02/22 12:06:40;;;;;;;12.65;6.32;;;;;;;;;;5056607;28;20163;-58
2023/02/22 12:09:29;;;;;;;11.15;7.20;;;;;;;;;;5056839;28;20060;-58
2023/02/22 12:12:01;;;;;;;10.93;7.00;;;;;;;;;;5056712;28;20033;-58
2023/02/22 12:14:34;;;;;;;11.57;7.00;;;;;;;;;;5056318;28;20448;-57
2023/02/22 12:17:06;;;;;;;13.10;7.70;;;;;;;;;;5056288;28;20028;-58
2023/02/22 12:19:37;;;;;;;8.30;7.00;;;;;;;;;;5056500;28;20039;-58
2023/02/22 12:22:22;;;;;;;11.15;8.07;;;;;;;;;;5055598;28;20483;-57
2023/02/22 12:24:52;;;;;;;10.30;8.20;;;;;;;;;;5056743;28;20047;-58
2023/02/22 12:27:26;;;;;;;10.52;7.50;;;;;;;;;;5056119;28;20093;-58
2023/02/22 12:29:57;;;;;;;11.15;7.53;;;;;;;;;;5055293;28;20028;-57
2023/02/22 12:32:34;;;;;;;11.05;7.80;;;;;;;;;;5056412;28;20033;-57
2023/02/22 12:35:09;;;;;;;15.10;8.35;;;;;;;;;;5056134;28;20048;-57
2023/02/22 12:37:52;;;;;;;12.13;7.05;;;;;;;;;;5056481;28;20120;-59
2023/02/22 12:40:34;;;;;;;8.68;7.20;;;;;;;;;;5055916;28;20438;-59
2023/02/22 12:43:08;;;;;;;10.00;7.80;;;;;;;;;;5055872;28;20017;-59
2023/02/22 12:46:06;;;;;;;9.02;7.32;;;;;;;;;;5056177;28;20036;-58
2023/02/22 12:48:44;;;;;;;9.43;7.15;;;;;;;;;;5043644;28;20429;-59
2023/02/22 12:51:10;;;;;;;12.32;8.13;;;;;;;;;;5055819;28;20368;-58
2023/02/22 12:53:39;;;;;;;11.45;8.00;;;;;;;;;;5055607;28;20128;-58
2023/02/22 12:56:14;;;;;;;11.07;6.80;;;;;;;;;;5055556;28;20029;-59
2023/02/22 12:59:01;;;;;;;12.98;7.40;;;;;;;;;;5055975;28;20036;-59
2023/02/22 13:01:32;;;;;;;8.98;7.10;;;;;;;;;;5056021;28;20025;-58
2023/02/22 13:03:58;;;;;;;;;;;;;;;;;;5056134;28;20048;-59
2023/02/22 13:06:48;;;;;;;11.15;8.18;;;;;;;;;;5055226;28;20350;-59
2023/02/22 13:09:23;;;;;;;11.98;7.35;;;;;;;;;;5055615;28;20462;-59
2023/02/22 13:11:49;;;;;;;10.52;7.78;;;;;;;;;;5055903;28;20033;-58
2023/02/22 13:14:20;;;;;;;11.85;7.25;;;;;;;;;;5055382;28;20049;-59
2023/02/22 13:16:51;;;;;;;7.13;5.78;;;;;;;;;;5055208;28;20036;-60
2023/02/22 13:19:23;;;;;;;9.10;6.43;;;;;;;;;;5055543;28;20060;-59
2023/02/22 13:21:54;;;;;;;6.93;5.93;;;;;;;;;;5055094;28;20075;-58
2023/02/22 13:24:26;;;;;;;9.13;6.63;;;;;;;;;;5055179;28;20029;-59
2023/02/22 13:26:58;;;;;;;9.80;5.95;;;;;;;;;;5055622;28;20482;-58
2023/02/22 13:29:27;;;;;;;7.82;5.28;;;;;;;;;;5055258;28;20082;-59
2023/02/22 13:32:05;;;;;;;7.95;6.18;;;;;;;;;;5055436;28;20419;-59
2023/02/22 13:34:37;;;;;;;7.55;5.93;;;;;;;;;;5054821;28;20028;-59
2023/02/22 13:37:12;;;;;;;8.77;5.90;;;;;;;;;;5055051;28;20115;-58
2023/02/22 13:39:54;;;;;;;12.80;7.47;;;;;;;;;;5054338;28;20128;-58
2023/02/22 13:42:39;;;;;;;7.75;5.65;;;;;;;;;;5054777;28;20032;-59
2023/02/22 13:45:20;;;;;;;10.23;7.05;;;;;;;;;;5055342;28;20025;-59
2023/02/22 13:48:06;;;;;;;13.00;7.15;;;;;;;;;;5054601;28;20083;-59
2023/02/22 13:50:35;;;;;;;7.70;5.97;;;;;;;;;;5054701;28;20116;-58
2023/02/22 13:53:03;;;;;;;8.63;6.65;;;;;;;;;;5054594;28;20033;-59
2023/02/22 13:55:33;;;;;;;10.00;6.45;;;;;;;;;;5055020;28;20029;-59
2023/02/22 13:58:04;;;;;;;8.85;6.75;;;;;;;;;;5054218;28;20029;-58
2023/02/22 14:00:46;;;;;;;8.45;6.55;;;;;;;;;;5054469;28;20079;-58
2023/02/22 14:03:12;;;;;;;11.07;7.43;;;;;;;;;;5052804;28;20530;-56
2023/02/22 14:05:41;;;;;;;10.00;7.45;;;;;;;;;;5054552;28;20049;-56
2023/02/22 14:08:13;;;;;;;9.57;7.00;;;;;;;;;;5054109;28;20025;-57
2023/02/22 14:10:42;;;;;;;10.40;7.45;;;;;;;;;;5054451;28;20029;-55
2023/02/22 14:13:09;;;;;;;9.52;7.00;;;;;;;;;;5053741;28;20049;-58
2023/02/22 14:15:35;;;;;;;8.60;7.40;;;;;;;;;;5053890;28;20060;-58
2023/02/22 14:18:02;;;;;;;11.75;7.65;;;;;;;;;;5053792;28;20068;-58
2023/02/22 14:20:31;;;;;;;7.60;6.65;;;;;;;;;;5053891;28;20128;-57
2023/02/22 14:22:57;;;;;;;9.82;7.47;;;;;;;;;;5053942;28;20091;-56
2023/02/22 14:25:39;;;;;;;11.02;8.25;;;;;;;;;;5053999;28;20029;-56
2023/02/22 14:28:07;;;;;;;9.10;7.60;;;;;;;;;;5053965;28;20032;-58
2023/02/22 14:30:34;;;;;;;10.95;7.50;;;;;;;;;;5054191;28;20037;-57
2023/02/22 14:33:00;;;;;;;13.43;9.05;;;;;;;;;;5053826;28;20051;-57
2023/02/22 14:35:36;;;;;;;17.63;9.07;;;;;;;;;;5054163;28;20087;-57
2023/02/22 14:38:02;;;;;;;11.68;7.05;;;;;;;;;;5054066;28;20037;-58
2023/02/22 14:40:33;;;;;;;9.02;6.88;;;;;;;;;;5054184;28;20029;-57
2023/02/22 14:43:00;;;;;;;;;;;;;;;;;;5054044;28;20060;-58
2023/02/22 14:45:30;;;;;;;12.45;7.88;;;;;;;;;;5053714;28;19959;-57
2023/02/22 14:48:13;;;;;;;8.95;7.32;;;;;;;;;;5054244;28;20120;-58
2023/02/22 14:50:39;;;;;;;11.88;8.18;;;;;;;;;;5053941;28;20370;-58
2023/02/22 14:53:11;;;;;;;9.63;7.90;;;;;;;;;;5053444;28;20036;-58
2023/02/22 14:55:43;;;;;;;11.82;7.47;;;;;;;;;;5053500;28;20491;-58